createdAt,value
2023-04-19T00:02:03.232Z,1.88
2023-04-19T00:04:30.290Z,2.42
2023-04-19T00:06:58.480Z,2.17
2023-04-19T00:09:25.485Z,2.60
2023-04-19T00:11:53.001Z,2.50
2023-04-19T00:14:20.003Z,2.40
2023-04-19T00:16:47.151Z,2.05
2023-04-19T00:19:14.047Z,2.30
2023-04-19T00:21:41.277Z,2.10
2023-04-19T00:24:08.131Z,2.33
2023-04-19T00:26:34.820Z,2.25
2023-04-19T00:29:01.549Z,1.75
2023-04-19T00:31:28.271Z,1.98
2023-04-19T00:33:55.102Z,1.73
2023-04-19T00:36:21.860Z,2.08
2023-04-19T00:38:48.586Z,1.90
2023-04-19T00:41:16.104Z,2.00
2023-04-19T00:43:42.922Z,2.20
2023-04-19T00:46:10.068Z,1.98
2023-04-19T00:48:36.996Z,2.22
2023-04-19T00:51:04.908Z,1.98
2023-04-19T00:53:31.631Z,2.30
2023-04-19T00:56:02.044Z,2.13
2023-04-19T00:58:31.546Z,1.90
2023-04-19T01:00:58.696Z,2.22
2023-04-19T01:03:27.662Z,2.30
2023-04-19T01:05:55.345Z,2.40
2023-04-19T01:08:22.102Z,2.00
2023-04-19T01:10:48.794Z,2.10
2023-04-19T01:13:15.600Z,1.58
2023-04-19T01:15:42.371Z,2.08
2023-04-19T01:18:09.166Z,1.80
2023-04-19T01:20:36.007Z,1.65
2023-04-19T01:23:02.818Z,2.55
2023-04-19T01:25:29.903Z,2.00
2023-04-19T01:27:56.779Z,1.80
2023-04-19T01:30:23.491Z,1.45
2023-04-19T01:32:50.450Z,1.95
2023-04-19T01:35:17.358Z,1.50
2023-04-19T01:37:44.125Z,2.20
2023-04-19T01:40:11.314Z,1.85
2023-04-19T01:42:38.051Z,2.00
2023-04-19T01:45:05.385Z,1.60
2023-04-19T01:47:32.181Z,2.17
2023-04-19T01:49:58.943Z,2.05
2023-04-19T01:52:25.697Z,2.22
2023-04-19T01:54:52.470Z,2.20
2023-04-19T01:57:19.259Z,2.28
2023-04-19T01:59:46.003Z,2.42
2023-04-19T02:02:12.792Z,1.90
2023-04-19T02:04:39.665Z,1.63
2023-04-19T02:07:06.441Z,1.63
2023-04-19T02:09:36.354Z,1.30
2023-04-19T02:12:04.229Z,0.80
2023-04-19T02:14:31.947Z,1.27
2023-04-19T02:16:58.862Z,1.52
2023-04-19T02:19:25.678Z,1.00
2023-04-19T02:21:53.729Z,1.55
2023-04-19T02:24:20.487Z,1.15
2023-04-19T02:26:47.253Z,1.00
2023-04-19T02:29:14.225Z,1.20
2023-04-19T02:31:41.021Z,1.27
2023-04-19T02:34:07.697Z,1.10
2023-04-19T02:36:34.445Z,1.38
2023-04-19T02:39:01.268Z,1.60
2023-04-19T02:41:27.969Z,1.38
2023-04-19T02:43:54.661Z,1.33
2023-04-19T02:46:21.398Z,0.93
2023-04-19T02:48:48.161Z,1.45
2023-04-19T02:51:16.723Z,1.45
2023-04-19T02:53:43.739Z,1.17
2023-04-19T02:56:10.506Z,0.90
2023-04-19T02:58:37.274Z,1.15
2023-04-19T03:01:04.061Z,1.35
2023-04-19T03:03:31.103Z,0.80
2023-04-19T03:05:58.005Z,0.90
2023-04-19T03:08:24.950Z,1.40
2023-04-19T03:10:51.813Z,0.98
2023-04-19T03:13:18.533Z,1.58
2023-04-19T03:15:45.492Z,0.88
2023-04-19T03:18:12.317Z,0.70
2023-04-19T03:20:39.162Z,1.17
2023-04-19T03:23:06.023Z,1.00
2023-04-19T03:25:33.186Z,0.68
2023-04-19T03:27:59.941Z,0.88
2023-04-19T03:30:26.616Z,1.23
2023-04-19T03:32:53.543Z,0.68
2023-04-19T03:35:21.144Z,0.80
2023-04-19T03:37:47.956Z,1.13
2023-04-19T03:40:14.676Z,1.20
2023-04-19T03:42:41.457Z,1.35
2023-04-19T03:45:08.870Z,1.35
2023-04-19T03:47:36.109Z,1.00
2023-04-19T03:50:03.336Z,1.05
2023-04-19T03:52:30.218Z,1.02
2023-04-19T03:54:56.962Z,0.70
2023-04-19T03:57:23.626Z,1.02
2023-04-19T03:59:50.563Z,0.82
2023-04-19T04:02:17.365Z,0.90
2023-04-19T04:04:44.479Z,1.10
2023-04-19T04:07:11.350Z,0.77
2023-04-19T04:09:38.088Z,0.85
2023-04-19T04:12:04.953Z,0.73
2023-04-19T04:14:31.745Z,0.50
2023-04-19T04:16:58.573Z,0.93
2023-04-19T04:19:25.574Z,1.02
2023-04-19T04:21:52.306Z,1.13
2023-04-19T04:24:20.178Z,0.47
2023-04-19T04:26:47.050Z,0.90
2023-04-19T04:29:14.269Z,0.65
2023-04-19T04:31:41.172Z,1.67
2023-04-19T04:34:09.202Z,1.00
2023-04-19T04:36:37.680Z,1.20
2023-04-19T04:39:06.269Z,0.60
2023-04-19T04:41:33.087Z,1.20
2023-04-19T04:44:12.005Z,1.30
2023-04-19T04:46:39.213Z,1.40
2023-04-19T04:49:06.617Z,1.25
2023-04-19T04:51:34.259Z,1.00
2023-04-19T04:54:01.099Z,1.20
2023-04-19T04:56:27.969Z,1.17
2023-04-19T04:58:54.753Z,1.02
2023-04-19T05:01:22.849Z,1.15
2023-04-19T05:03:50.565Z,1.10
2023-04-19T05:06:17.349Z,1.13
2023-04-19T05:08:45.021Z,0.93
2023-04-19T05:11:11.795Z,0.73
2023-04-19T05:13:38.545Z,1.17
2023-04-19T05:16:05.797Z,1.33
2023-04-19T05:18:32.692Z,0.90
2023-04-19T05:20:59.585Z,0.88
2023-04-19T05:23:26.514Z,0.98
2023-04-19T05:25:53.420Z,1.17
2023-04-19T05:28:20.188Z,1.05
2023-04-19T05:30:46.910Z,1.10
2023-04-19T05:33:13.671Z,0.95
2023-04-19T05:35:40.431Z,1.05
2023-04-19T05:38:07.152Z,1.40
2023-04-19T05:40:35.518Z,0.60
2023-04-19T05:43:02.328Z,1.00
2023-04-19T05:45:29.188Z,0.68
2023-04-19T05:47:56.236Z,0.85
2023-04-19T05:50:23.108Z,0.98
2023-04-19T05:52:49.785Z,1.05
2023-04-19T05:55:18.067Z,0.80
2023-04-19T05:57:44.901Z,0.95
2023-04-19T06:00:12.164Z,0.70
2023-04-19T06:02:39.017Z,0.70
2023-04-19T06:05:09.832Z,1.40
2023-04-19T06:07:43.157Z,0.52
2023-04-19T06:10:14.113Z,0.77
2023-04-19T06:12:40.951Z,1.00
2023-04-19T06:15:08.589Z,0.95
2023-04-19T06:17:35.454Z,1.52
2023-04-19T06:20:02.468Z,1.08
2023-04-19T06:22:30.042Z,1.80
2023-04-19T06:24:56.883Z,1.35
2023-04-19T06:27:23.670Z,1.10
2023-04-19T06:29:51.359Z,0.75
2023-04-19T06:32:18.271Z,1.15
2023-04-19T06:34:44.987Z,0.85
2023-04-19T06:37:11.808Z,0.70
2023-04-19T06:39:38.551Z,0.70
2023-04-19T06:42:05.565Z,0.73
2023-04-19T06:44:32.345Z,0.93
2023-04-19T06:46:59.177Z,0.95
2023-04-19T06:49:26.025Z,0.77
2023-04-19T06:51:53.406Z,0.82
2023-04-19T06:54:20.364Z,0.73
2023-04-19T06:56:49.880Z,1.15
2023-04-19T06:59:19.194Z,1.27
2023-04-19T07:01:47.270Z,0.90
2023-04-19T07:04:14.937Z,0.85
2023-04-19T07:06:42.309Z,0.77
2023-04-19T07:09:09.077Z,0.70
2023-04-19T07:11:36.015Z,0.98
2023-04-19T07:14:02.865Z,0.85
2023-04-19T07:16:29.728Z,0.85
2023-04-19T07:18:57.176Z,0.50
2023-04-19T07:21:26.673Z,0.90
2023-04-19T07:23:53.495Z,0.77
2023-04-19T07:26:20.412Z,0.93
2023-04-19T07:28:47.274Z,0.65
2023-04-19T07:31:18.601Z,0.80
2023-04-19T07:33:45.718Z,1.00
2023-04-19T07:36:12.706Z,1.05
2023-04-19T07:38:40.145Z,0.80
2023-04-19T07:41:06.914Z,0.70
2023-04-19T07:43:33.864Z,0.75
2023-04-19T07:46:01.621Z,0.90
2023-04-19T07:48:28.617Z,0.73
2023-04-19T07:50:55.330Z,0.77
2023-04-19T07:53:22.194Z,0.93
2023-04-19T07:55:48.938Z,0.98
2023-04-19T07:58:15.632Z,0.90
2023-04-19T08:00:42.468Z,1.00
2023-04-19T08:03:09.445Z,0.90
2023-04-19T08:05:36.423Z,0.77
2023-04-19T08:08:03.453Z,0.77
2023-04-19T08:10:30.712Z,1.00
2023-04-19T08:13:05.803Z,0.95
2023-04-19T08:18:07.180Z,0.80
2023-04-19T08:20:34.068Z,0.80
2023-04-19T08:23:10.563Z,0.98
2023-04-19T08:25:45.288Z,1.08
2023-04-19T08:28:12.514Z,0.80
2023-04-19T08:30:40.341Z,1.02
2023-04-19T08:33:07.249Z,0.88
2023-04-19T08:35:36.176Z,0.73
2023-04-19T08:38:04.806Z,1.15
2023-04-19T08:40:31.742Z,1.00
2023-04-19T08:42:59.092Z,1.00
2023-04-19T08:45:30.119Z,0.77
2023-04-19T08:48:01.395Z,0.85
2023-04-19T08:53:16.418Z,0.98
2023-04-19T08:58:30.718Z,1.23
2023-04-19T09:03:56.059Z,0.80
2023-04-19T09:06:27.981Z,1.10
2023-04-19T09:11:58.172Z,1.00
2023-04-19T09:14:26.630Z,1.30
2023-04-19T09:16:53.426Z,1.10
2023-04-19T09:19:24.922Z,0.85
2023-04-19T09:21:54.544Z,1.20
2023-04-19T09:25:13.879Z,1.38
2023-04-19T09:27:33.903Z,0.82
2023-04-19T09:30:02.092Z,0.90
2023-04-19T09:32:44.463Z,1.50
2023-04-19T09:35:11.288Z,1.25
2023-04-19T09:40:28.041Z,1.20
2023-04-19T09:43:08.872Z,1.23
2023-04-19T09:45:46.452Z,1.00
2023-04-19T09:48:13.557Z,1.60
2023-04-19T09:51:00.246Z,1.10
2023-04-19T09:53:34.194Z,1.25
2023-04-19T09:56:03.103Z,1.33
2023-04-19T10:01:13.321Z,1.20
2023-04-19T10:03:45.771Z,1.60
2023-04-19T10:08:51.200Z,1.23
2023-04-19T10:11:21.891Z,1.45
2023-04-19T10:13:53.091Z,1.48
2023-04-19T10:16:20.828Z,1.30
2023-04-19T10:18:50.624Z,1.25
2023-04-19T10:21:19.120Z,1.20
2023-04-19T10:23:46.472Z,1.65
2023-04-19T10:26:13.236Z,1.13
2023-04-19T10:28:42.064Z,1.65
2023-04-19T10:31:12.893Z,1.38
2023-04-19T10:33:40.736Z,1.30
2023-04-19T10:36:14.178Z,1.35
2023-04-19T10:38:55.678Z,1.77
2023-04-19T10:41:23.016Z,1.48
2023-04-19T10:43:56.072Z,1.13
2023-04-19T10:46:23.154Z,1.38
2023-04-19T10:49:00.416Z,1.33
2023-04-19T10:51:39.084Z,1.75
2023-04-19T10:54:05.998Z,1.40
2023-04-19T10:56:32.770Z,1.13
2023-04-19T10:59:08.184Z,1.15
2023-04-19T11:01:43.332Z,1.08
2023-04-19T11:04:37.825Z,1.23
2023-04-19T11:07:07.372Z,1.00
2023-04-19T11:09:36.592Z,1.35
2023-04-19T11:12:04.822Z,1.35
2023-04-19T11:14:34.751Z,1.30
2023-04-19T11:17:13.686Z,1.20
2023-04-19T11:19:43.584Z,1.40
2023-04-19T11:22:10.472Z,1.33
2023-04-19T11:24:37.139Z,1.20
2023-04-19T11:27:09.515Z,1.27
2023-04-19T11:29:36.349Z,1.40
2023-04-19T11:32:04.508Z,1.25
2023-04-19T11:34:39.402Z,1.75
2023-04-19T11:37:06.210Z,1.45
2023-04-19T11:39:33.157Z,1.08
2023-04-19T11:42:00.141Z,0.90
2023-04-19T11:44:27.202Z,1.20
2023-04-19T11:47:05.151Z,1.33
2023-04-19T11:49:33.634Z,2.00
2023-04-19T11:52:04.609Z,1.40
2023-04-19T11:54:33.257Z,1.52
2023-04-19T11:57:03.755Z,1.52
2023-04-19T11:59:32.519Z,1.42
2023-04-19T12:02:06.383Z,1.25
2023-04-19T12:04:33.600Z,1.60
2023-04-19T12:07:02.628Z,1.30
2023-04-19T12:09:30.073Z,1.42
2023-04-19T12:11:58.344Z,1.35
2023-04-19T12:14:26.726Z,1.52
2023-04-19T12:17:05.742Z,1.25
2023-04-19T12:19:37.766Z,1.30
2023-04-19T12:22:09.149Z,1.58
2023-04-19T12:24:35.921Z,1.35
2023-04-19T12:27:03.244Z,1.60
2023-04-19T12:29:30.981Z,1.10
2023-04-19T12:31:57.794Z,1.50
2023-04-19T12:34:24.489Z,1.65
2023-04-19T12:36:51.391Z,1.45
2023-04-19T12:39:18.268Z,1.20
2023-04-19T12:41:45.823Z,1.70
2023-04-19T12:44:12.638Z,1.35
2023-04-19T12:46:39.784Z,1.40
2023-04-19T12:49:06.758Z,1.42
2023-04-19T12:51:33.718Z,2.13
2023-04-19T12:54:00.884Z,1.40
2023-04-19T12:56:27.667Z,1.50
2023-04-19T12:58:54.414Z,1.27
2023-04-19T13:01:21.271Z,1.38
2023-04-19T13:03:48.252Z,1.50
2023-04-19T13:06:16.910Z,1.30
2023-04-19T13:08:46.642Z,1.63
2023-04-19T13:11:16.090Z,1.35
2023-04-19T13:13:42.982Z,2.00
2023-04-19T13:16:09.901Z,1.42
2023-04-19T13:18:36.619Z,1.95
2023-04-19T13:21:03.995Z,1.63
2023-04-19T13:23:31.857Z,1.73
2023-04-19T13:25:58.758Z,2.03
2023-04-19T13:28:25.468Z,0.85
2023-04-19T13:30:52.394Z,1.63
2023-04-19T13:33:19.557Z,1.58
2023-04-19T13:35:46.753Z,1.58
2023-04-19T13:38:13.788Z,1.40
2023-04-19T13:40:40.707Z,1.40
2023-04-19T13:43:07.589Z,1.40
2023-04-19T13:45:34.905Z,1.25
2023-04-19T13:48:01.779Z,1.50
2023-04-19T13:50:29.778Z,1.58
2023-04-19T13:52:57.469Z,1.90
2023-04-19T13:55:24.558Z,1.65
2023-04-19T13:57:51.376Z,2.38
2023-04-19T14:00:18.977Z,1.55
2023-04-19T14:02:46.066Z,1.08
2023-04-19T14:05:13.045Z,1.33
2023-04-19T14:07:40.740Z,1.30
2023-04-19T14:10:09.496Z,1.10
2023-04-19T14:12:36.377Z,1.38
2023-04-19T14:15:04.240Z,1.00
2023-04-19T14:17:31.075Z,1.20
2023-04-19T14:19:57.908Z,1.30
2023-04-19T14:22:24.665Z,1.00
2023-04-19T14:24:51.663Z,1.20
2023-04-19T14:27:19.263Z,1.20
2023-04-19T14:29:46.104Z,1.08
2023-04-19T14:32:24.852Z,1.98
2023-04-19T14:34:55.142Z,1.00
2023-04-19T14:37:23.371Z,1.52
2023-04-19T14:39:50.371Z,1.45
2023-04-19T14:42:17.145Z,1.33
2023-04-19T14:44:45.247Z,1.10
2023-04-19T14:47:12.385Z,1.25
2023-04-19T14:49:39.964Z,1.52
2023-04-19T14:52:06.792Z,1.10
2023-04-19T14:54:33.597Z,1.40
2023-04-19T14:57:01.342Z,1.15
2023-04-19T14:59:29.768Z,1.45
2023-04-19T15:01:56.919Z,1.10
2023-04-19T15:04:24.118Z,1.45
2023-04-19T15:06:51.116Z,1.73
2023-04-19T15:09:18.546Z,0.98
2023-04-19T15:11:45.741Z,1.55
2023-04-19T15:14:12.707Z,1.23
2023-04-19T15:16:39.650Z,1.20
2023-04-19T15:19:07.489Z,1.20
2023-04-19T15:21:34.779Z,1.15
2023-04-19T15:24:01.730Z,1.15
2023-04-19T15:26:28.764Z,1.38
2023-04-19T15:28:56.313Z,1.38
2023-04-19T15:31:25.511Z,1.20
2023-04-19T15:33:53.428Z,1.17
2023-04-19T15:36:20.175Z,1.42
2023-04-19T15:38:47.020Z,1.30
2023-04-19T15:41:13.879Z,1.20
2023-04-19T15:43:40.686Z,1.30
2023-04-19T15:46:12.036Z,1.30
2023-04-19T15:48:42.725Z,1.08
2023-04-19T15:51:11.451Z,1.45
2023-04-19T15:53:38.953Z,1.00
2023-04-19T15:56:06.161Z,1.35
2023-04-19T15:58:33.108Z,1.30
2023-04-19T16:00:59.858Z,0.80
2023-04-19T16:03:26.823Z,1.92
2023-04-19T16:05:55.461Z,2.10
2023-04-19T16:08:22.626Z,1.25
2023-04-19T16:10:49.899Z,1.27
2023-04-19T16:13:16.906Z,2.08
2023-04-19T16:15:44.716Z,1.27
2023-04-19T16:18:13.119Z,1.42
2023-04-19T16:20:41.746Z,1.08
2023-04-19T16:23:09.012Z,1.13
2023-04-19T16:25:36.043Z,1.10
2023-04-19T16:28:03.018Z,1.08
2023-04-19T16:30:29.856Z,1.30
2023-04-19T16:32:57.606Z,1.20
2023-04-19T16:35:25.725Z,1.20
2023-04-19T16:37:55.135Z,1.35
2023-04-19T16:40:23.626Z,1.40
2023-04-19T16:42:50.399Z,1.38
2023-04-19T16:45:19.944Z,1.30
2023-04-19T16:47:46.974Z,1.77
2023-04-19T16:50:14.405Z,1.67
2023-04-19T16:52:41.411Z,1.55
2023-04-19T16:55:08.737Z,1.13
2023-04-19T16:57:36.601Z,1.23
2023-04-19T17:00:05.776Z,1.38
2023-04-19T17:02:33.633Z,1.15
2023-04-19T17:05:01.235Z,1.10
2023-04-19T17:07:28.549Z,0.88
2023-04-19T17:09:55.850Z,1.08
2023-04-19T17:12:23.116Z,1.00
2023-04-19T17:14:50.305Z,1.52
2023-04-19T17:17:20.070Z,1.25
2023-04-19T17:19:47.118Z,1.48
2023-04-19T17:22:17.052Z,1.67
2023-04-19T17:24:43.794Z,0.93
2023-04-19T17:27:11.002Z,1.35
2023-04-19T17:29:37.961Z,0.90
2023-04-19T17:32:06.123Z,1.38
2023-04-19T17:34:35.400Z,1.00
2023-04-19T17:37:03.900Z,1.30
2023-04-19T17:39:30.732Z,0.98
2023-04-19T17:41:57.923Z,0.82
2023-04-19T17:44:24.949Z,0.70
2023-04-19T17:46:51.858Z,1.33
2023-04-19T17:49:20.236Z,1.20
2023-04-19T17:51:47.592Z,1.05
2023-04-19T17:54:15.327Z,0.70
2023-04-19T17:56:42.195Z,1.35
2023-04-19T17:59:09.013Z,1.42
2023-04-19T18:01:36.081Z,1.08
2023-04-19T18:04:03.535Z,0.90
2023-04-19T18:06:31.691Z,1.52
2023-04-19T18:08:58.974Z,1.10
2023-04-19T18:11:28.333Z,1.67
2023-04-19T18:13:55.869Z,0.90
2023-04-19T18:16:23.036Z,1.15
2023-04-19T18:18:50.338Z,1.40
2023-04-19T18:21:18.498Z,1.27
2023-04-19T18:23:45.699Z,1.88
2023-04-19T18:26:12.527Z,2.28
2023-04-19T18:28:41.092Z,2.42
2023-04-19T18:31:09.664Z,2.40
2023-04-19T18:33:36.589Z,2.85
2023-04-19T18:36:04.336Z,2.58
2023-04-19T18:38:31.405Z,2.63
2023-04-19T18:40:59.267Z,2.30
2023-04-19T18:43:28.155Z,2.70
2023-04-19T18:45:56.194Z,2.00
2023-04-19T18:48:28.198Z,2.85
2023-04-19T18:50:57.329Z,2.03
2023-04-19T18:53:27.647Z,2.65
2023-04-19T18:55:58.200Z,2.30
2023-04-19T18:58:26.758Z,2.55
2023-04-19T19:00:54.771Z,2.53
2023-04-19T19:03:52.676Z,2.45
2023-04-19T19:06:10.198Z,2.83
2023-04-19T19:08:37.378Z,2.45
2023-04-19T19:13:34.239Z,1.88
2023-04-19T19:16:01.095Z,1.70
2023-04-19T19:18:29.567Z,1.95
2023-04-19T19:21:03.100Z,1.67
2023-04-19T19:23:35.902Z,1.80
2023-04-19T19:26:06.419Z,1.80
2023-04-19T19:28:33.202Z,2.42
2023-04-19T19:31:00.018Z,2.13
2023-04-19T19:33:28.632Z,1.80
2023-04-19T19:35:55.848Z,1.60
2023-04-19T19:38:22.611Z,2.00
2023-04-19T19:43:19.168Z,2.00
2023-04-19T19:45:45.912Z,1.45
2023-04-19T19:48:12.742Z,1.73
2023-04-19T19:51:07.388Z,1.88
2023-04-19T19:53:26.274Z,1.60
2023-04-19T19:55:53.111Z,1.70
2023-04-19T19:58:42.583Z,1.33
2023-04-19T20:01:07.297Z,2.20
2023-04-19T20:03:37.284Z,1.92
2023-04-19T20:06:35.499Z,1.35
2023-04-19T20:08:56.164Z,1.77
2023-04-19T20:11:23.513Z,0.90
2023-04-19T20:13:50.789Z,1.25
2023-04-19T20:16:20.942Z,1.45
2023-04-19T20:18:49.238Z,1.42
2023-04-19T20:21:17.917Z,1.50
2023-04-19T20:23:44.706Z,1.65
2023-04-19T20:26:11.432Z,1.20
2023-04-19T20:28:38.305Z,1.50
2023-04-19T20:31:06.308Z,1.13
2023-04-19T20:33:33.090Z,0.98
2023-04-19T20:36:00.581Z,1.25
2023-04-19T20:38:27.364Z,1.00
2023-04-19T20:40:54.054Z,1.45
2023-04-19T20:43:20.966Z,1.13
2023-04-19T20:45:47.944Z,1.23
2023-04-19T20:48:14.643Z,1.13
2023-04-19T20:50:41.996Z,1.00
2023-04-19T20:53:08.791Z,1.50
2023-04-19T20:55:35.713Z,1.40
2023-04-19T20:58:03.393Z,0.95
2023-04-19T21:00:30.235Z,1.52
2023-04-19T21:02:57.044Z,1.83
2023-04-19T21:05:23.924Z,1.15
2023-04-19T21:07:50.708Z,1.35
2023-04-19T21:10:17.572Z,1.23
2023-04-19T21:12:44.761Z,1.20
2023-04-19T21:15:12.207Z,0.90
2023-04-19T21:17:39.466Z,1.75
2023-04-19T21:20:12.450Z,1.60
2023-04-19T21:22:42.933Z,1.00
2023-04-19T21:25:12.597Z,1.48
2023-04-19T21:27:40.617Z,0.93
2023-04-19T21:30:08.556Z,1.67
2023-04-19T21:32:35.431Z,1.10
2023-04-19T21:35:02.383Z,1.33
2023-04-19T21:37:29.095Z,1.20
2023-04-19T21:39:56.031Z,1.05
2023-04-19T21:42:22.800Z,1.20
2023-04-19T21:44:49.562Z,1.30
2023-04-19T21:47:16.347Z,1.00
2023-04-19T21:49:43.201Z,1.10
2023-04-19T21:52:09.974Z,1.10
2023-04-19T21:54:36.639Z,1.13
2023-04-19T21:57:03.414Z,1.40
2023-04-19T21:59:30.952Z,1.05
2023-04-19T22:01:58.758Z,1.50
2023-04-19T22:04:26.194Z,1.40
2023-04-19T22:06:53.896Z,1.70
2023-04-19T22:09:20.736Z,1.48
2023-04-19T22:11:47.486Z,1.45
2023-04-19T22:14:14.311Z,1.42
2023-04-19T22:16:42.230Z,1.30
2023-04-19T22:19:09.075Z,1.15
2023-04-19T22:21:36.250Z,1.77
2023-04-19T22:24:03.673Z,1.17
2023-04-19T22:26:30.591Z,1.33
2023-04-19T22:28:57.391Z,1.98
2023-04-19T22:31:24.141Z,1.25
2023-04-19T22:33:50.968Z,1.40
2023-04-19T22:36:18.023Z,1.73
2023-04-19T22:38:44.863Z,1.67
2023-04-19T22:41:11.592Z,2.08
2023-04-19T22:43:38.428Z,1.70
2023-04-19T22:46:05.978Z,1.90
2023-04-19T22:48:32.908Z,1.63
2023-04-19T22:51:00.779Z,1.92
2023-04-19T22:53:27.933Z,1.88
2023-04-19T22:55:54.630Z,1.65
2023-04-19T22:58:22.144Z,1.88
2023-04-19T23:00:50.045Z,2.30
2023-04-19T23:03:17.106Z,1.45
2023-04-19T23:05:44.453Z,1.77
2023-04-19T23:08:12.835Z,1.98
2023-04-19T23:10:42.393Z,2.08
2023-04-19T23:13:11.917Z,1.83
2023-04-19T23:15:39.279Z,2.78
2023-04-19T23:18:06.219Z,1.65
2023-04-19T23:20:33.283Z,1.48
2023-04-19T23:23:00.148Z,3.13
2023-04-19T23:25:27.043Z,1.13
2023-04-19T23:27:53.711Z,1.95
2023-04-19T23:30:20.764Z,1.73
2023-04-19T23:32:47.662Z,1.42
2023-04-19T23:35:14.502Z,1.67
2023-04-19T23:37:41.293Z,2.22
2023-04-19T23:40:09.249Z,2.30
2023-04-19T23:42:38.211Z,2.28
2023-04-19T23:45:06.580Z,1.77
2023-04-19T23:47:34.264Z,2.05
2023-04-19T23:50:01.045Z,1.73
2023-04-19T23:52:27.758Z,2.10
2023-04-19T23:54:54.510Z,2.10
2023-04-19T23:57:21.431Z,1.80
2023-04-19T23:59:48.134Z,1.67
